This is the latest recevied weather packets stored in our database for station/object N4QEP-13. If no packets are shown the sender has not sent any weather packets the latest 10 day(s).
| Time | Temp. | Humidity | Pressure | Rain* | Wind** | Luminosity | Snow |
|---|---|---|---|---|---|---|---|
| 1777908638 | 24.44° C | 29% | 1019.3 hPa | 0 mm | - | - | - |
| 1777907734 | 23.89° C | 29% | 1019.5 hPa | 0 mm | - | - | - |
| 1777906834 | 22.78° C | 38% | 1019.4 hPa | 0 mm | - | - | - |
| 1777905927 | 22.78° C | 41% | 1019.5 hPa | 0 mm | - | - | - |
| 1777905029 | 22.22° C | 44% | 1019.6 hPa | 0 mm | - | - | - |
| 1777904120 | 20° C | 48% | 1019.7 hPa | 0 mm | - | - | - |
| 1777903213 | 19.44° C | 56% | 1019.8 hPa | 0 mm | - | - | - |
| 1777902316 | 18.33° C | 61% | 1019.9 hPa | 0 mm | - | - | - |
| 1777901407 | 17.78° C | 62% | 1019.7 hPa | 0 mm | - | - | - |
| 1777900503 | 16.11° C | 67% | 1019.5 hPa | 0 mm | - | - | - |
| 1777899660 | 14.44° C | 69% | 1019.4 hPa | 0 mm | - | - | - |
| 1777898757 | 13.89° C | 70% | 1019.3 hPa | 0 mm | - | - | - |
| 1777897860 | 12.22° C | 74% | 1019.2 hPa | 0 mm | - | - | - |
| 1777896960 | 11.11° C | 76% | 1018.9 hPa | 0 mm | - | - | - |
| 1777896049 | 10° C | 78% | 1019 hPa | 0 mm | - | - | - |
| 1777895151 | 9.44° C | 80% | 1018.9 hPa | 0 mm | - | - | - |
| 1777894264 | 8.89° C | 80% | 1018.9 hPa | 0 mm | - | - | - |
| 1777893345 | 8.33° C | 80% | 1018.9 hPa | 0 mm | - | - | - |
| 1777892444 | 8.89° C | 80% | 1018.8 hPa | 0 mm | - | - | - |
| 1777891550 | 8.89° C | 80% | 1018.8 hPa | 0 mm | - | - | - |
| 1777890646 | 8.89° C | 80% | 1018.7 hPa | 0 mm | - | - | - |
| 1777889742 | 8.89° C | 80% | 1018.8 hPa | 0 mm | - | - | - |
| 1777888837 | 8.89° C | 80% | 1018.9 hPa | 0 mm | - | - | - |
| 1777887935 | 8.89° C | 80% | 1018.9 hPa | 0 mm | - | - | - |
| 1777887034 | 8.33° C | 79% | 1019 hPa | 0 mm | - | - | - |
* Rain latest hour (hover to see other rain measurements)
** Current wind speed in m/s (hover to see current wind gust speed)